Time,TemperatureF,DewpointF,PressureIn,WindDirection,WindDirectionDegrees,WindSpeedMPH,WindSpeedGustMPH,Humidity,HourlyPrecipIn,Conditions,Clouds,dailyrainin,SoftwareType,DateUTC
2013-09-10 00:13:00,64.7,62.0,30.16,South,171,0.0,-999.0,90,-99.99,,,0.00,weatherlink.com 1.10,2013-09-10 04:13:00,
2013-09-10 00:28:00,64.7,62.0,30.17,SSE,158,0.0,-999.0,91,-99.99,,,0.00,weatherlink.com 1.10,2013-09-10 04:28:00,
2013-09-10 00:43:00,64.4,62.0,30.17,SSE,168,0.0,-999.0,92,-99.99,,,0.00,weatherlink.com 1.10,2013-09-10 04:43:00,
2013-09-10 00:58:00,64.3,62.0,30.17,SSE,155,0.0,-999.0,92,-99.99,,,0.00,weatherlink.com 1.10,2013-09-10 04:58:00,
2013-09-10 01:13:00,64.2,62.0,30.16,SE,130,5.0,-999.0,92,-99.99,,,0.00,weatherlink.com 1.10,2013-09-10 05:13:00,
2013-09-10 01:28:00,64.2,62.0,30.16,SE,141,5.0,-999.0,93,-99.99,,,0.00,weatherlink.com 1.10,2013-09-10 05:28:00,
2013-09-10 01:43:00,64.1,62.0,30.17,SSE,157,4.0,-999.0,93,-99.99,,,0.00,weatherlink.com 1.10,2013-09-10 05:43:00,
2013-09-10 01:58:00,64.0,62.0,30.17,SSE,162,0.0,-999.0,93,-99.99,,,0.00,weatherlink.com 1.10,2013-09-10 05:58:00,
2013-09-10 02:13:00,64.0,62.0,30.17,South,173,0.0,-999.0,93,-99.99,,,0.00,weatherlink.com 1.10,2013-09-10 06:13:00,
2013-09-10 02:28:00,64.0,62.0,30.17,SE,143,0.0,-999.0,94,-99.99,,,0.00,weatherlink.com 1.10,2013-09-10 06:28:00,
2013-09-10 02:43:00,63.7,62.0,30.17,SSW,203,0.0,-999.0,94,-99.99,,,0.00,weatherlink.com 1.10,2013-09-10 06:43:00,
2013-09-10 02:58:00,63.6,62.0,30.16,SSW,210,0.0,-999.0,94,-99.99,,,0.00,weatherlink.com 1.10,2013-09-10 06:58:00,
2013-09-10 03:13:00,63.7,62.0,30.16,SW,216,3.0,-999.0,94,-99.99,,,0.00,weatherlink.com 1.10,2013-09-10 07:13:00,
2013-09-10 03:28:00,63.7,62.0,30.17,SSW,210,1.0,-999.0,94,-99.99,,,0.00,weatherlink.com 1.10,2013-09-10 07:28:00,
2013-09-10 03:43:00,63.8,62.0,30.17,SW,215,4.0,-999.0,95,-99.99,,,0.00,weatherlink.com 1.10,2013-09-10 07:43:00,
2013-09-10 03:58:00,63.9,62.0,30.17,SSW,213,2.0,-999.0,94,-99.99,,,0.00,weatherlink.com 1.10,2013-09-10 07:58:00,
2013-09-10 04:13:00,64.0,62.0,30.16,SSW,209,5.0,-999.0,93,-99.99,,,0.00,weatherlink.com 1.10,2013-09-10 08:13:00,
2013-09-10 04:28:00,64.0,62.0,30.17,SSW,202,6.0,-999.0,93,-99.99,,,0.00,weatherlink.com 1.10,2013-09-10 08:28:00,
2013-09-10 04:43:00,64.1,62.0,30.17,SW,218,4.0,-999.0,92,-99.99,,,0.00,weatherlink.com 1.10,2013-09-10 08:43:00,
2013-09-10 04:58:00,64.1,62.0,30.17,SW,221,5.0,-999.0,93,-99.99,,,0.00,weatherlink.com 1.10,2013-09-10 08:58:00,
2013-09-10 05:13:00,63.6,62.0,30.18,SW,220,6.0,-999.0,94,-99.99,,,0.00,weatherlink.com 1.10,2013-09-10 09:13:00,
2013-09-10 05:28:00,63.4,62.0,30.18,SW,221,6.0,-999.0,94,-99.99,,,0.00,weatherlink.com 1.10,2013-09-10 09:28:00,
2013-09-10 05:43:00,63.3,61.0,30.18,West,263,6.0,-999.0,93,-99.99,,,0.00,weatherlink.com 1.10,2013-09-10 09:43:00,
2013-09-10 05:58:00,63.4,61.0,30.18,WSW,253,10.0,-999.0,92,-99.99,,,0.00,weatherlink.com 1.10,2013-09-10 09:58:00,
2013-09-10 06:13:00,63.7,61.0,30.18,West,262,7.0,-999.0,92,-99.99,,,0.00,weatherlink.com 1.10,2013-09-10 10:13:00,
2013-09-10 06:28:00,63.9,61.0,30.19,SW,234,7.0,-999.0,91,-99.99,,,0.00,weatherlink.com 1.10,2013-09-10 10:28:00,
2013-09-10 06:43:00,63.8,61.0,30.19,WSW,252,7.0,-999.0,90,-99.99,,,0.00,weatherlink.com 1.10,2013-09-10 10:43:00,
2013-09-10 06:58:00,64.4,61.0,30.20,WSW,252,8.0,-999.0,87,-99.99,,,0.00,weatherlink.com 1.10,2013-09-10 10:58:00,
2013-09-10 07:13:00,64.7,61.0,30.20,SW,220,11.0,-999.0,86,-99.99,,,0.00,weatherlink.com 1.10,2013-09-10 11:13:00,
2013-09-10 07:28:00,65.0,60.0,30.20,SW,223,9.0,-999.0,85,-99.99,,,0.00,weatherlink.com 1.10,2013-09-10 11:28:00,
2013-09-10 07:43:00,65.1,60.0,30.21,West,265,6.0,-999.0,84,-99.99,,,0.00,weatherlink.com 1.10,2013-09-10 11:43:00,
2013-09-10 07:58:00,65.2,60.0,30.21,SW,236,6.0,-999.0,84,-99.99,,,0.00,weatherlink.com 1.10,2013-09-10 11:58:00,
2013-09-10 08:13:00,65.5,60.0,30.21,SW,236,9.0,-999.0,83,-99.99,,,0.00,weatherlink.com 1.10,2013-09-10 12:13:00,
2013-09-10 08:28:00,65.7,60.0,30.22,SW,236,9.0,-999.0,82,-99.99,,,0.00,weatherlink.com 1.10,2013-09-10 12:28:00,
2013-09-10 08:43:00,65.9,61.0,30.22,SW,219,6.0,-999.0,83,-99.99,,,0.00,weatherlink.com 1.10,2013-09-10 12:43:00,
2013-09-10 08:58:00,66.3,61.0,30.23,WSW,252,4.0,-999.0,83,-99.99,,,0.00,weatherlink.com 1.10,2013-09-10 12:58:00,
2013-09-10 09:13:00,66.5,61.0,30.23,WSW,240,5.0,-999.0,82,-99.99,,,0.00,weatherlink.com 1.10,2013-09-10 13:13:00,
2013-09-10 09:28:00,66.8,61.0,30.23,SW,216,6.0,-999.0,82,-99.99,,,0.00,weatherlink.com 1.10,2013-09-10 13:28:00,
2013-09-10 09:43:00,66.9,61.0,30.24,SSW,205,7.0,-999.0,82,-99.99,,,0.00,weatherlink.com 1.10,2013-09-10 13:43:00,
2013-09-10 09:58:00,67.2,62.0,30.24,West,265,3.0,-999.0,82,-99.99,,,0.00,weatherlink.com 1.10,2013-09-10 13:58:00,
2013-09-10 10:13:00,67.6,61.0,30.24,SSW,200,7.0,-999.0,80,-99.99,,,0.00,weatherlink.com 1.10,2013-09-10 14:13:00,
2013-09-10 10:28:00,68.0,61.0,30.24,SW,231,3.0,-999.0,77,-99.99,,,0.00,weatherlink.com 1.10,2013-09-10 14:28:00,
2013-09-10 10:43:00,68.4,62.0,30.24,SSW,211,2.0,-999.0,79,-99.99,,,0.00,weatherlink.com 1.10,2013-09-10 14:43:00,
2013-09-10 10:58:00,68.9,63.0,30.25,WSW,254,4.0,-999.0,81,-99.99,,,0.00,weatherlink.com 1.10,2013-09-10 14:58:00,
2013-09-10 11:13:00,69.4,62.0,30.25,SW,236,4.0,-999.0,78,-99.99,,,0.00,weatherlink.com 1.10,2013-09-10 15:13:00,
2013-09-10 11:28:00,69.1,62.0,30.25,SW,224,6.0,-999.0,78,-99.99,,,0.00,weatherlink.com 1.10,2013-09-10 15:28:00,
2013-09-10 11:43:00,70.2,65.0,30.25,West,268,1.0,-999.0,83,-99.99,,,0.00,weatherlink.com 1.10,2013-09-10 15:43:00,
2013-09-10 12:13:00,71.0,65.0,30.25,WNW,284,6.0,-999.0,81,-99.99,,,0.00,weatherlink.com 1.10,2013-09-10 16:13:00,
2013-09-10 12:28:00,71.0,65.0,30.23,West,275,1.0,-999.0,81,-99.99,,,0.00,weatherlink.com 1.10,2013-09-10 16:28:00,
2013-09-10 12:43:00,72.4,66.0,30.23,SSW,211,2.0,-999.0,79,-99.99,,,0.00,weatherlink.com 1.10,2013-09-10 16:43:00,
2013-09-10 12:58:00,72.2,66.0,30.23,WSW,252,2.0,-999.0,81,-99.99,,,0.00,weatherlink.com 1.10,2013-09-10 16:58:00,
2013-09-10 13:13:00,71.8,67.0,30.23,SW,220,3.0,-999.0,85,-99.99,,,0.00,weatherlink.com 1.10,2013-09-10 17:13:00,
2013-09-10 13:28:00,71.1,67.0,30.24,SSW,213,0.0,-999.0,86,-99.99,,,0.00,weatherlink.com 1.10,2013-09-10 17:28:00,
2013-09-10 13:43:00,72.0,67.0,30.23,SSW,202,0.0,-999.0,83,-99.99,,,0.00,weatherlink.com 1.10,2013-09-10 17:43:00,
2013-09-10 13:58:00,73.4,67.0,30.23,SW,220,1.0,-999.0,80,-99.99,,,0.00,weatherlink.com 1.10,2013-09-10 17:58:00,
2013-09-10 14:13:00,74.5,67.0,30.23,SSE,161,0.0,-999.0,77,-99.99,,,0.00,weatherlink.com 1.10,2013-09-10 18:13:00,
2013-09-10 14:28:00,74.2,66.0,30.22,SSE,160,2.0,-999.0,76,-99.99,,,0.00,weatherlink.com 1.10,2013-09-10 18:28:00,
2013-09-10 14:43:00,74.9,67.0,30.22,SSW,195,1.0,-999.0,75,-99.99,,,0.00,weatherlink.com 1.10,2013-09-10 18:43:00,
2013-09-10 14:58:00,74.4,66.0,30.22,SSE,154,0.0,-999.0,75,-99.99,,,0.00,weatherlink.com 1.10,2013-09-10 18:58:00,
2013-09-10 15:13:00,74.3,67.0,30.21,SSW,206,6.0,-999.0,77,-99.99,,,0.00,weatherlink.com 1.10,2013-09-10 19:13:00,
2013-09-10 15:28:00,74.0,66.0,30.21,SW,233,3.0,-999.0,77,-99.99,,,0.00,weatherlink.com 1.10,2013-09-10 19:28:00,
2013-09-10 15:43:00,74.0,67.0,30.21,South,188,5.0,-999.0,78,-99.99,,,0.00,weatherlink.com 1.10,2013-09-10 19:43:00,
2013-09-10 15:58:00,74.7,66.0,30.20,SSW,209,0.0,-999.0,75,-99.99,,,0.00,weatherlink.com 1.10,2013-09-10 19:58:00,
2013-09-10 16:13:00,75.0,66.0,30.20,SSE,158,1.0,-999.0,74,-99.99,,,0.00,weatherlink.com 1.10,2013-09-10 20:13:00,
2013-09-10 16:28:00,75.5,66.0,30.19,SSW,203,1.0,-999.0,72,-99.99,,,0.00,weatherlink.com 1.10,2013-09-10 20:28:00,
2013-09-10 16:43:00,75.5,65.0,30.19,SSE,149,0.0,-999.0,70,-99.99,,,0.00,weatherlink.com 1.10,2013-09-10 20:43:00,
2013-09-10 16:58:00,74.6,66.0,30.19,SE,138,0.0,-999.0,74,-99.99,,,0.00,weatherlink.com 1.10,2013-09-10 20:58:00,
2013-09-10 17:13:00,75.5,66.0,30.18,SW,225,2.0,-999.0,72,-99.99,,,0.00,weatherlink.com 1.10,2013-09-10 21:13:00,
2013-09-10 17:28:00,74.4,66.0,30.18,South,173,0.0,-999.0,74,-99.99,,,0.00,weatherlink.com 1.10,2013-09-10 21:28:00,
2013-09-10 17:43:00,73.3,66.0,30.18,SE,140,4.0,-999.0,77,-99.99,,,0.00,weatherlink.com 1.10,2013-09-10 21:43:00,
2013-09-10 17:58:00,73.4,66.0,30.18,South,172,5.0,-999.0,78,-99.99,,,0.00,weatherlink.com 1.10,2013-09-10 21:58:00,
2013-09-10 18:13:00,73.5,67.0,30.17,SSW,205,0.0,-999.0,79,-99.99,,,0.00,weatherlink.com 1.10,2013-09-10 22:13:00,
2013-09-10 18:28:00,72.6,67.0,30.18,South,180,0.0,-999.0,81,-99.99,,,0.00,weatherlink.com 1.10,2013-09-10 22:28:00,
2013-09-10 18:58:00,71.0,66.0,30.18,South,177,2.0,-999.0,85,-99.99,,,0.00,weatherlink.com 1.10,2013-09-10 22:58:00,
2013-09-10 19:13:00,70.3,66.0,30.18,SSE,163,0.0,-999.0,85,-99.99,,,0.00,weatherlink.com 1.10,2013-09-10 23:13:00,
2013-09-10 19:28:00,69.5,65.0,30.18,SSW,210,0.0,-999.0,86,-99.99,,,0.00,weatherlink.com 1.10,2013-09-10 23:28:00,
2013-09-10 19:43:00,68.9,65.0,30.18,SSW,203,0.0,-999.0,86,-99.99,,,0.00,weatherlink.com 1.10,2013-09-10 23:43:00,
2013-09-10 19:58:00,68.5,64.0,30.18,SW,217,4.0,-999.0,86,-99.99,,,0.00,weatherlink.com 1.10,2013-09-10 23:58:00,
2013-09-10 20:13:00,68.3,65.0,30.19,SSW,212,5.0,-999.0,88,-99.99,,,0.00,weatherlink.com 1.10,2013-09-11 00:13:00,
2013-09-10 20:28:00,68.0,65.0,30.19,SSW,212,2.0,-999.0,89,-99.99,,,0.00,weatherlink.com 1.10,2013-09-11 00:28:00,
2013-09-10 20:43:00,68.0,65.0,30.20,SSW,205,1.0,-999.0,89,-99.99,,,0.00,weatherlink.com 1.10,2013-09-11 00:43:00,
2013-09-10 20:58:00,68.1,65.0,30.20,SSW,203,5.0,-999.0,89,-99.99,,,0.00,weatherlink.com 1.10,2013-09-11 00:58:00,
2013-09-10 21:13:00,67.9,65.0,30.20,SW,225,4.0,-999.0,90,-99.99,,,0.00,weatherlink.com 1.10,2013-09-11 01:13:00,
2013-09-10 21:28:00,67.9,65.0,30.21,SSW,213,9.0,-999.0,91,-99.99,,,0.00,weatherlink.com 1.10,2013-09-11 01:28:00,
2013-09-10 21:43:00,67.8,65.0,30.22,SSW,197,5.0,-999.0,90,-99.99,,,0.00,weatherlink.com 1.10,2013-09-11 01:43:00,
2013-09-10 21:58:00,67.8,65.0,30.22,SSW,212,6.0,-999.0,90,-99.99,,,0.00,weatherlink.com 1.10,2013-09-11 01:58:00,
2013-09-10 22:13:00,67.7,65.0,30.22,SW,224,6.0,-999.0,90,-99.99,,,0.00,weatherlink.com 1.10,2013-09-11 02:13:00,
2013-09-10 22:28:00,67.7,64.0,30.23,SW,217,4.0,-999.0,88,-99.99,,,0.00,weatherlink.com 1.10,2013-09-11 02:28:00,
2013-09-10 22:43:00,67.8,64.0,30.23,SW,233,4.0,-999.0,87,-99.99,,,0.00,weatherlink.com 1.10,2013-09-11 02:43:00,
2013-09-10 22:58:00,67.6,63.0,30.23,SW,221,7.0,-999.0,86,-99.99,,,0.00,weatherlink.com 1.10,2013-09-11 02:58:00,
2013-09-10 23:13:00,67.5,64.0,30.23,SW,218,6.0,-999.0,87,-99.99,,,0.00,weatherlink.com 1.10,2013-09-11 03:13:00,
2013-09-10 23:28:00,67.5,63.0,30.23,SW,234,8.0,-999.0,86,-99.99,,,0.00,weatherlink.com 1.10,2013-09-11 03:28:00,
2013-09-10 23:43:00,67.4,63.0,30.22,SW,230,9.0,-999.0,86,-99.99,,,0.00,weatherlink.com 1.10,2013-09-11 03:43:00,
2013-09-10 23:58:00,67.3,63.0,30.22,SW,229,7.0,-999.0,86,-99.99,,,0.00,weatherlink.com 1.10,2013-09-11 03:58:00,